CMA CGM Fortuna — A8OF7 — position and weather

sailwx.info

Track history (hours):
 
Tides and Currents Weather Stations Pressure Air Temp Water Temp Dewpoint Dewpoint Depression Visibility Wind Speed Wind Dir Waves Ship Positions

CMA CGM Fortuna

Last reported at 2017-Nov-11 00:59 UTC. Time now 2017-Nov-19 15:38 UTC.
Position N 32°29' W 117°35'.
Warning: this ship's position is 8 days out of date.

Length 204 m; beam 28 m; draft 9.5 m.

Type: Ship (hazmat cat A). MMSI: 636017731.

Date/timePositionNaut miles runAvg speedWind from/ knotsBaromVisibWave heightAir tempDewpointWater temp
2017-Nov-11 00:59N 32°29' W 117°35'815.9
2017-Nov-11 00:30N 32°37' W 117°38'918.4
2017-Nov-11 00:00N 32°45' W 117°44'918.5
2017-Nov-10 23:30N 32°53' W 117°49'918.5
2017-Nov-10 23:00N 33°00' W 117°55'918.5
2017-Nov-10 22:30N 33°08' W 118°01'32 2.0
2017-Nov-10 06:39N 33°39' W 118°12'2 8.5
2017-Nov-10 06:24N 33°38' W 118°14'4 9.0
2017-Nov-10 06:00N 33°36' W 118°17'5 9.8
2017-Nov-10 05:30N 33°37' W 118°23'510.4
2017-Nov-10 05:00N 33°40' W 118°28'510.3
2017-Nov-10 04:30N 33°42' W 118°34'510.4
2017-Nov-10 04:00N 33°45' W 118°39'510.3
2017-Nov-10 03:30N 33°48' W 118°45'510.0
2017-Nov-10 03:00N 33°50' W 118°50'510.8
2017-Nov-10 02:30N 33°53' W 118°55'510.8
2017-Nov-10 02:00N 33°55' W 119°01'611.2
2017-Nov-10 01:30N 33°58' W 119°07'611.5
2017-Nov-10 01:00N 34°01' W 119°13'510.7
2017-Nov-10 00:29N 34°07' W 119°14'3 3.8
2017-Nov-09 23:45N 34°09' W 119°12'0 0.0
2017-Nov-09 23:30N 34°09' W 119°12'0 0.0
2017-Nov-09 22:08N 34°09' W 119°12'0 0.0
2017-Nov-09 21:56N 34°09' W 119°12'0 0.0
2017-Nov-09 20:08N 34°09' W 119°12'0 0.0
2017-Nov-09 17:36N 34°09' W 119°12'0 0.0
2017-Nov-09 14:41N 34°09' W 119°12'0 0.0
2017-Nov-09 14:29N 34°09' W 119°12'0 0.0
2017-Nov-09 13:47N 34°09' W 119°12'0 0.0
2017-Nov-09 13:23N 34°09' W 119°12'0 0.0
2017-Nov-09 05:22N 34°09' W 119°12'0 0.0
2017-Nov-09 04:37N 34°09' W 119°12'0 0.0
2017-Nov-09 04:07N 34°09' W 119°12'0 0.0
2017-Nov-09 01:14N 34°09' W 119°12'0 0.0
2017-Nov-08 23:23N 34°09' W 119°12'0 0.0
2017-Nov-08 20:33N 34°09' W 119°12'0 0.0
2017-Nov-08 20:24N 34°09' W 119°12'0 0.0
2017-Nov-08 19:27N 34°09' W 119°12'0 0.0
2017-Nov-08 17:10N 34°09' W 119°12'0 0.0
2017-Nov-08 15:16N 34°09' W 119°12'0 0.0
2017-Nov-08 14:58N 34°09' W 119°12'0 0.0
2017-Nov-08 14:28N 34°09' W 119°12'2 3.2
2017-Nov-08 14:00N 34°08' W 119°14'2 4.6
2017-Nov-08 13:29N 34°05' W 119°13'611.8
2017-Nov-08 13:00N 34°01' W 119°09'713.3
2017-Nov-08 12:30N 33°55' W 119°06'1215.2
2017-Nov-08 11:42N 33°45' W 118°58'315.6
2017-Nov-08 11:29N 33°42' W 118°55'1315.6
2017-Nov-08 10:40N 33°31' W 118°47'315.6
2017-Nov-08 10:30N 33°29' W 118°45'1815.6
2017-Nov-08 09:22N 33°14' W 118°34'614.9
2017-Nov-08 08:58N 33°11' W 118°28'1915.3
2017-Nov-08 07:45N 32°60' W 118°10'415.4
2017-Nov-08 07:29N 32°57' W 118°07'1015.6
2017-Nov-08 06:52N 32°51' W 117°58'515.3
2017-Nov-08 06:30N 32°48' W 117°53'815.5
2017-Nov-08 06:00N 32°42' W 117°46'815.4
2017-Nov-08 05:30N 32°37' W 117°39'713.2
2017-Nov-08 05:00N 32°31' W 117°37'712.7
2017-Nov-08 04:25N 32°24' W 117°34'  
Track history (hours):
 
Tides and Currents Weather Stations Pressure Air Temp Water Temp Dewpoint Dewpoint Depression Visibility Wind Speed Wind Dir Waves Ship Positions

CMA CGM Fortuna

Last reported at 2017-Nov-11 00:59 UTC. Time now 2017-Nov-19 15:38 UTC.
Position N 32°29' W 117°35'.
Warning: this ship's position is 8 days out of date.

Length 204 m; beam 28 m; draft 9.5 m.

Type: Ship (hazmat cat A). MMSI: 636017731.

Date/timePositionNaut miles runAvg speedWind from/ knotsBaromVisibWave heightAir tempDewpointWater temp
2017-Nov-11 00:59N 32°29' W 117°35'815.9
2017-Nov-11 00:30N 32°37' W 117°38'918.4
2017-Nov-11 00:00N 32°45' W 117°44'918.5
2017-Nov-10 23:30N 32°53' W 117°49'918.5
2017-Nov-10 23:00N 33°00' W 117°55'918.5
2017-Nov-10 22:30N 33°08' W 118°01'32 2.0
2017-Nov-10 06:39N 33°39' W 118°12'2 8.5
2017-Nov-10 06:24N 33°38' W 118°14'4 9.0
2017-Nov-10 06:00N 33°36' W 118°17'5 9.8
2017-Nov-10 05:30N 33°37' W 118°23'510.4
2017-Nov-10 05:00N 33°40' W 118°28'510.3
2017-Nov-10 04:30N 33°42' W 118°34'510.4
2017-Nov-10 04:00N 33°45' W 118°39'510.3
2017-Nov-10 03:30N 33°48' W 118°45'510.0
2017-Nov-10 03:00N 33°50' W 118°50'510.8
2017-Nov-10 02:30N 33°53' W 118°55'510.8
2017-Nov-10 02:00N 33°55' W 119°01'611.2
2017-Nov-10 01:30N 33°58' W 119°07'611.5
2017-Nov-10 01:00N 34°01' W 119°13'510.7
2017-Nov-10 00:29N 34°07' W 119°14'3 3.8
2017-Nov-09 23:45N 34°09' W 119°12'0 0.0
2017-Nov-09 23:30N 34°09' W 119°12'0 0.0
2017-Nov-09 22:08N 34°09' W 119°12'0 0.0
2017-Nov-09 21:56N 34°09' W 119°12'0 0.0
2017-Nov-09 20:08N 34°09' W 119°12'0 0.0
2017-Nov-09 17:36N 34°09' W 119°12'0 0.0
2017-Nov-09 14:41N 34°09' W 119°12'0 0.0
2017-Nov-09 14:29N 34°09' W 119°12'0 0.0
2017-Nov-09 13:47N 34°09' W 119°12'0 0.0
2017-Nov-09 13:23N 34°09' W 119°12'0 0.0
2017-Nov-09 05:22N 34°09' W 119°12'0 0.0
2017-Nov-09 04:37N 34°09' W 119°12'0 0.0
2017-Nov-09 04:07N 34°09' W 119°12'0 0.0
2017-Nov-09 01:14N 34°09' W 119°12'0 0.0
2017-Nov-08 23:23N 34°09' W 119°12'0 0.0
2017-Nov-08 20:33N 34°09' W 119°12'0 0.0
2017-Nov-08 20:24N 34°09' W 119°12'0 0.0
2017-Nov-08 19:27N 34°09' W 119°12'0 0.0
2017-Nov-08 17:10N 34°09' W 119°12'0 0.0
2017-Nov-08 15:16N 34°09' W 119°12'0 0.0
2017-Nov-08 14:58N 34°09' W 119°12'0 0.0
2017-Nov-08 14:28N 34°09' W 119°12'2 3.2
2017-Nov-08 14:00N 34°08' W 119°14'2 4.6
2017-Nov-08 13:29N 34°05' W 119°13'611.8
2017-Nov-08 13:00N 34°01' W 119°09'713.3
2017-Nov-08 12:30N 33°55' W 119°06'1215.2
2017-Nov-08 11:42N 33°45' W 118°58'315.6
2017-Nov-08 11:29N 33°42' W 118°55'1315.6
2017-Nov-08 10:40N 33°31' W 118°47'315.6
2017-Nov-08 10:30N 33°29' W 118°45'1815.6
2017-Nov-08 09:22N 33°14' W 118°34'614.9
2017-Nov-08 08:58N 33°11' W 118°28'1915.3
2017-Nov-08 07:45N 32°60' W 118°10'415.4
2017-Nov-08 07:29N 32°57' W 118°07'1015.6
2017-Nov-08 06:52N 32°51' W 117°58'515.3
2017-Nov-08 06:30N 32°48' W 117°53'815.5
2017-Nov-08 06:00N 32°42' W 117°46'815.4
2017-Nov-08 05:30N 32°37' W 117°39'713.2
2017-Nov-08 05:00N 32°31' W 117°37'712.7
2017-Nov-08 04:25N 32°24' W 117°34'  

Dump ship's entire track history